Pauma Valley (249, 217) Station Data

Red Flag Warning: No
Fire Weather Zone: 250
SDGE Region: North East
Lat/Lon: 33.371/-117.079

Observations

Time Wind Speed/Gust Temp(F) RH Fuel Moist Fuel Temp(F) Dewpt(F) Tmax(F) Tmin(F) Accum Precip 10-min Precip SL Press(mb)
6/22 5:00am 174 1 G 2 60° 92% - - 57° 60.9° 59.3° - - -
6/22 4:50am 198 1 G 3 60° 92% - - 57° 60.9° 59.4° - - -
6/22 4:40am 135 0 G 2 60° 92% - - 57° 60.9° 59.5° - - -
6/22 4:30am 328 1 G 2 60° 92% - - 57° 60.9° 59.6° - - -
6/22 4:20am 183 1 G 2 60° 92% - - 57° 60.9° 59.6° - - -
6/22 4:10am 194 1 G 2 60° 92% - - 58° 60.9° 59.7° - - -
6/22 4:00am 208 2 G 2 60° 92% - - 58° 60.9° 59.7° - - -
6/22 3:50am 164 2 G 3 60° 92% - - 58° 60.9° 59.7° - - -
6/22 3:40am 152 1 G 4 60° 92% - - 58° 60.9° 59.7° - - -
6/22 3:30am 144 1 G 2 60° 92% - - 58° 60.9° 59.7° - - -
6/22 3:20am 167 2 G 3 60° 92% - - 58° 60.9° 59.7° - - -
6/22 3:10am 168 1 G 2 60° 92% - - 57° 60.9° 59.7° - - -
6/22 3:00am 199 2 G 4 60° 92% - - 58° 60.9° 59.8° - - -
6/22 2:50am 231 2 G 5 60° 92% - - 58° 60.9° 59.8° - - -
6/22 2:40am 271 1 G 4 60° 92% - - 58° 60.9° 59.8° - - -
6/22 2:30am 218 3 G 6 60° 92% - - 58° 60.9° 60° - - -
6/22 2:20am 228 3 G 5 60° 92% - - 58° 60.9° 60.1° - - -
6/22 2:10am 319 1 G 3 60° 92% - - 58° 60.9° 60.1° - - -
6/22 2:00am 283 2 G 3 60° 92% - - 58° 60.9° 60.1° - - -
6/22 1:50am 292 2 G 4 60° 92% - - 58° 60.9° 60.2° - - -
6/22 1:40am 253 3 G 5 61° 92% - - 58° 60.9° 60.3° - - -
6/22 1:30am 279 4 G 6 61° 92% - - 58° 60.9° 60.3° - - -
6/22 1:20am 264 3 G 7 61° 92% - - 58° 60.9° 60.3° - - -
6/22 1:10am 260 4 G 7 61° 91% - - 58° 60.9° 60.3° - - -
6/22 1:00am 260 4 G 8 61° 91% - - 58° 60.9° 60.3° - - -
6/22 12:50am 267 4 G 7 61° 91% - - 58° 60.9° 60.3° - - -
6/22 12:40am 271 2 G 6 61° 91% - - 58° 60.9° 60.3° - - -
6/22 12:30am 262 2 G 5 61° 91% - - 58° 60.9° 60.4° - - -
6/22 12:20am 273 3 G 7 61° 90% - - 58° 60.9° 60.4° - - -
6/22 12:10am 270 4 G 7 61° 90% - - 58° 60.9° 60.4° - - -
6/22 12:00am 264 4 G 6 61° 89% - - 58° 90° 57.3° - - -
6/21 11:50pm 262 3 G 6 61° 89% - - 58° 90° 57.3° - - -
6/21 11:40pm 271 5 G 7 61° 88% - - 58° 90° 57.3° - - -
6/21 11:30pm 272 5 G 9 62° 87% - - 58° 90° 57.3° - - -
6/21 11:20pm 262 4 G 8 62° 86% - - 58° 90° 57.3° - - -
6/21 11:10pm 269 4 G 8 62° 86% - - 58° 90° 57.3° - - -
6/21 11:00pm 270 3 G 7 62° 85% - - 58° 90° 57.3° - - -
6/21 10:50pm 268 4 G 7 63° 85% - - 58° 90° 57.3° - - -
6/21 10:30pm 272 4 G 8 63° 84% - - 58° 90° 57.3° - - -
6/21 10:20pm 295 3 G 6 63° 83% - - 58° 90° 57.3° - - -
6/21 10:10pm 282 3 G 5 64° 82% - - 58° 90° 57.3° - - -
6/21 10:00pm 275 2 G 4 64° 81% - - 58° 90° 57.3° - - -
6/21 9:50pm 280 1 G 3 65° 79% - - 58° 90° 57.3° - - -
6/21 9:40pm 261 3 G 5 65° 78% - - 58° 90° 57.3° - - -
6/21 9:30pm 280 3 G 7 66° 77% - - 58° 90° 57.3° - - -
6/21 9:20pm 276 4 G 9 66° 76% - - 58° 90° 57.3° - - -
6/21 9:10pm 285 4 G 8 66° 75% - - 58° 90° 57.3° - - -
6/21 9:00pm 267 6 G 9 67° 74% - - 58° 90° 57.3° - - -
6/21 8:50pm 282 5 G 9 67° 73% - - 58° 90° 57.3° - - -
6/21 8:40pm 286 6 G 11 68° 72% - - 58° 90° 57.3° - - -
6/21 8:30pm 280 6 G 12 69° 69% - - 58° 90° 57.3° - - -
6/21 8:20pm 263 7 G 11 69° 67% - - 58° 90° 57.3° - - -
6/21 8:10pm 254 4 G 9 70° 65% - - 58° 90° 57.3° - - -
6/21 8:00pm 270 6 G 11 71° 63% - - 58° 90° 57.3° - - -
6/21 7:50pm 274 6 G 11 72° 62% - - 58° 90° 57.3° - - -
6/21 7:40pm 264 5 G 11 73° 60% - - 58° 90° 57.3° - - -
6/21 7:30pm 270 7 G 11 73° 58% - - 58° 90° 57.3° - - -
6/21 7:20pm 255 6 G 12 75° 55% - - 57° 90° 57.3° - - -
6/21 7:10pm 248 10 G 15 76° 52% - - 57° 90° 57.3° - - -
6/21 7:00pm 242 10 G 15 77° 51% - - 57° 90° 57.3° - - -
6/21 6:50pm 244 10 G 14 78° 49% - - 57° 90° 57.3° - - -
6/21 6:40pm 244 11 G 15 78° 47% - - 57° 90° 57.3° - - -
6/21 6:30pm 244 11 G 16 79° 46% - - 57° 90° 57.3° - - -
6/21 6:20pm 244 10 G 15 80° 45% - - 57° 90° 57.3° - - -
6/21 6:10pm 242 10 G 15 80° 44% - - 57° 90° 57.3° - - -
6/21 6:00pm 242 12 G 17 81° 43% - - 56° 90° 57.3° - - -
6/21 5:50pm 243 11 G 17 82° 42% - - 56° 90° 57.3° - - -
6/21 5:40pm 253 9 G 14 83° 40% - - 56° 90° 57.3° - - -
6/21 5:30pm 255 9 G 15 84° 39% - - 56° 90° 57.3° - - -
6/21 5:20pm 260 9 G 14 84° 37% - - 55° 90° 57.3° - - -
6/21 5:10pm 251 10 G 18 85° 37% - - 55° 90° 57.3° - - -
6/21 5:00pm 249 10 G 15 85° 37% - - 55° 90° 57.3° - - -
6/21 4:50pm 245 13 G 18 85° 37% - - 55° 90° 57.3° - - -
6/21 4:40pm 248 10 G 17 85° 36% - - 55° 90° 57.3° - - -
6/21 4:30pm 244 12 G 17 85° 37% - - 55° 90° 57.3° - - -
6/21 4:20pm 248 13 G 17 85° 36% - - 55° 90° 57.3° - - -
6/21 4:10pm 247 12 G 18 85° 36% - - 55° 90° 57.3° - - -
6/21 4:00pm 247 12 G 17 85° 35% - - 55° 90° 57.3° - - -
6/21 3:50pm 245 12 G 16 85° 36% - - 55° 90° 57.3° - - -
6/21 3:40pm 244 13 G 18 85° 36% - - 56° 90° 57.3° - - -
6/21 3:30pm 241 13 G 18 86° 36% - - 56° 90° 57.3° - - -
6/21 3:20pm 241 12 G 18 86° 36% - - 56° 90° 57.3° - - -
6/21 3:10pm 241 11 G 17 87° 35% - - 56° 90° 57.3° - - -
6/21 3:00pm 241 13 G 18 87° 36% - - 56° 90° 57.3° - - -
6/21 2:50pm 241 12 G 19 86° 36% - - 57° 90° 57.3° - - -
6/21 2:40pm 243 13 G 20 87° 36% - - 56° 90° 57.3° - - -
6/21 2:30pm 245 13 G 19 87° 36% - - 56° 90° 57.3° - - -
6/21 2:20pm 249 13 G 18 87° 36% - - 56° 90° 57.3° - - -
6/21 2:10pm 248 15 G 19 87° 35% - - 56° 90° 57.3° - - -
6/21 2:00pm 249 14 G 17 87° 35% - - 56° 90° 57.3° - - -
6/21 1:50pm 252 11 G 17 88° 34% - - 56° 90° 57.3° - - -
6/21 1:40pm 249 12 G 19 88° 34% - - 57° 90° 57.3° - - -
6/21 1:30pm 247 12 G 18 88° 35% - - 57° 90° 57.3° - - -
6/21 1:20pm 257 11 G 20 89° 35% - - 57° 90° 57.3° - - -
6/21 1:10pm 249 10 G 17 89° 34% - - 57° 90° 57.3° - - -
6/21 1:00pm 253 12 G 19 89° 34% - - 57° 89.7° 57.3° - - -
6/21 12:50pm 253 11 G 18 88° 35% - - 57° 88.9° 57.3° - - -
6/21 12:40pm 249 12 G 17 88° 35% - - 57° 88.2° 57.3° - - -
6/21 12:30pm 244 11 G 17 87° 36% - - 57° 87.9° 57.3° - - -
6/21 12:20pm 243 12 G 16 87° 36% - - 57° 87.4° 57.3° - - -
6/21 12:10pm 244 12 G 17 86° 35% - - 56° 87° 57.3° - - -
6/21 12:00pm 245 13 G 17 86° 37% - - 56° 86.4° 57.3° - - -
6/21 11:50am 250 12 G 16 86° 37% - - 56° 86° 57.3° - - -
6/21 11:40am 250 11 G 16 85° 38% - - 57° 85.4° 57.3° - - -
6/21 11:30am 249 12 G 16 84° 39% - - 57° 84.4° 57.3° - - -
6/21 11:20am 252 12 G 15 83° 41% - - 57° 83.9° 57.3° - - -
6/21 11:10am 252 11 G 15 83° 42% - - 57° 82.9° 57.3° - - -
6/21 11:00am 253 10 G 16 82° 43% - - 57° 82.6° 57.3° - - -
6/21 10:50am 251 9 G 14 82° 43% - - 57° 82.4° 57.3° - - -
6/21 10:40am 251 10 G 15 81° 45% - - 57° 81.4° 57.3° - - -
6/21 10:30am 247 8 G 13 81° 45% - - 58° 81.2° 57.3° - - -
6/21 10:20am 264 5 G 9 80° 47% - - 58° 80.8° 57.3° - - -
6/21 10:10am 259 5 G 10 79° 49% - - 59° 79.9° 57.3° - - -
6/21 10:00am 246 5 G 9 78° 50% - - 58° 78.8° 57.3° - - -
6/21 9:50am 256 5 G 8 77° 53% - - 59° 77.9° 57.3° - - -
6/21 9:40am 243 5 G 7 76° 57% - - 59° 76.3° 57.3° - - -
6/21 9:30am 255 4 G 7 74° 63% - - 60° 74.8° 57.3° - - -
6/21 9:20am 202 3 G 5 72° 72% - - 62° 72.9° 57.3° - - -
6/21 9:10am 162 2 G 4 70° 80% - - 64° 70.6° 57.3° - - -
6/21 9:00am 123 1 G 2 68° 86% - - 64° 69.5° 57.3° - - -
6/21 8:50am 65 0 G 1 66° 92% - - 64° 67.6° 57.3° - - -
6/21 8:40am 170 1 G 2 64° 93% - - 62° 64.7° 57.3° - - -
6/21 8:30am 182 0 G 2 63° 93% - - 61° 63.8° 57.3° - - -
6/21 8:20am 136 1 G 2 62° 93% - - 60° 63.8° 57.3° - - -
6/21 8:10am 170 2 G 3 61° 93% - - 59° 63.8° 57.3° - - -
6/21 8:00am 200 1 G 3 60° 93% - - 58° 63.8° 57.3° - - -
6/21 7:50am 176 1 G 3 59° 93% - - 57° 63.8° 57.3° - - -
6/21 7:40am 218 1 G 2 59° 93% - - 57° 63.8° 57.3° - - -
6/21 7:30am 216 0 G 1 59° 93% - - 57° 63.8° 57.3° - - -
6/21 7:20am 324 1 G 2 59° 93% - - 57° 63.8° 57.3° - - -
6/21 7:10am 333 1 G 3 59° 93% - - 57° 63.8° 57.3° - - -
6/21 7:00am 68 1 G 3 58° 93% - - 57° 63.8° 57.3° - - -
6/21 6:50am 188 1 G 3 58° 93% - - 56° 63.8° 57.3° - - -
6/21 6:40am 284 1 G 1 58° 93% - - 56° 63.8° 57.3° - - -
6/21 6:30am 346 1 G 2 58° 93% - - 56° 63.8° 57.3° - - -
6/21 6:20am 347 2 G 3 58° 93% - - 56° 63.8° 57.3° - - -
6/21 6:10am 356 2 G 3 58° 93% - - 56° 63.8° 57.5° - - -
6/21 6:00am 349 2 G 3 58° 93% - - 56° 63.8° 57.5° - - -
6/21 5:50am 352 2 G 3 58° 93% - - 56° 63.8° 57.5° - - -
6/21 5:40am 343 2 G 3 58° 93% - - 56° 63.8° 57.5° - - -
6/21 5:30am 359 2 G 3 58° 93% - - 56° 63.8° 57.5° - - -
6/21 5:20am 354 2 G 3 58° 93% - - 56° 63.8° 57.5° - - -
6/21 5:10am 344 2 G 4 58° 93% - - 56° 63.8° 57.5° - - -
6/21 5:00am 349 3 G 4 58° 93% - - 56° 63.8° 57.6° - - -
6/21 4:50am 351 3 G 4 58° 93% - - 56° 63.8° 57.7° - - -
6/21 4:40am 342 2 G 3 58° 93% - - 56° 63.8° 57.9° - - -
6/21 4:30am 348 2 G 3 58° 92% - - 56° 63.8° 57.9° - - -
6/21 4:20am 2 2 G 3 58° 92% - - 56° 63.8° 58.1° - - -
6/21 4:10am 354 2 G 3 58° 92% - - 56° 63.8° 58.1° - - -
6/21 4:00am 3 2 G 2 58° 92% - - 56° 63.8° 58.1° - - -
6/21 3:50am 4 2 G 3 59° 92% - - 57° 63.8° 58.5° - - -
6/21 3:40am 11 1 G 2 59° 92% - - 57° 63.8° 58.5° - - -
6/21 3:30am 337 1 G 2 59° 92% - - 57° 63.8° 58.5° - - -
6/21 3:20am 328 2 G 2 59° 91% - - 57° 63.8° 58.5° - - -
6/21 3:10am 315 1 G 3 59° 91% - - 56° 63.8° 58.5° - - -
6/21 3:00am 308 1 G 3 60° 90% - - 57° 63.8° 59.1° - - -
6/21 2:50am 276 2 G 4 60° 90% - - 58° 63.8° 59.9° - - -
6/21 2:40am 250 2 G 4 61° 89% - - 57° 63.8° 59.9° - - -
6/21 2:30am 252 2 G 4 61° 88% - - 57° 63.8° 59.9° - - -
6/21 2:20am 265 1 G 3 60° 86% - - 56° 63.8° 59.9° - - -
6/21 2:10am 313 0 G 1 61° 86% - - 57° 63.8° 60.5° - - -
6/21 2:00am 285 1 G 2 62° 86% - - 57° 63.8° 61.2° - - -
6/21 1:50am 241 1 G 3 62° 85% - - 57° 63.8° 61.2° - - -
6/21 1:40am 196 1 G 2 61° 84% - - 57° 63.8° 61.2° - - -
6/21 1:30am 170 0 G 2 62° 84% - - 57° 63.8° 61.3° - - -
6/21 1:20am 239 1 G 1 62° 84% - - 57° 63.8° 61.7° - - -
6/21 1:10am 352 0 G 1 62° 83% - - 57° 63.8° 61.7° - - -
6/21 1:00am 119 0 G 1 62° 83% - - 57° 63.8° 62.2° - - -
6/21 12:50am 299 0 G 1 63° 83% - - 57° 63.8° 62.5° - - -
6/21 12:40am 342 1 G 2 63° 82% - - 57° 63.8° 62.6° - - -
6/21 12:30am 351 2 G 3 63° 83% - - 58° 63.8° 62.6° - - -
6/21 12:20am 2 2 G 2 63° 83% - - 58° 63.8° 63° - - -
6/21 12:10am 24 0 G 1 63° 83% - - 58° 63.8° 63.2° - - -
6/21 12:00am 12 0 G 1 64° 83% - - 59° 93.4° 57.9° - - -
6/20 11:50pm 343 1 G 1 64° 83% - - 59° 93.4° 57.9° - - -
6/20 11:40pm 300 1 G 1 64° 83% - - 59° 93.4° 57.9° - - -
6/20 11:30pm 276 1 G 2 64° 84% - - 59° 93.4° 57.9° - - -
6/20 11:20pm 248 2 G 4 64° 84% - - 59° 93.4° 57.9° - - -
6/20 11:10pm 226 2 G 4 65° 83% - - 60° 93.4° 57.9° - - -
6/20 11:00pm 245 3 G 4 65° 82% - - 60° 93.4° 57.9° - - -
6/20 10:50pm 257 3 G 5 65° 83% - - 60° 93.4° 57.9° - - -
6/20 10:40pm 278 3 G 6 65° 82% - - 60° 93.4° 57.9° - - -
6/20 10:30pm 281 5 G 7 66° 82% - - 60° 93.4° 57.9° - - -
6/20 10:20pm 272 6 G 10 66° 81% - - 60° 93.4° 57.9° - - -
6/20 10:10pm 267 7 G 11 66° 80% - - 60° 93.4° 57.9° - - -
6/20 10:00pm 273 6 G 8 66° 79% - - 60° 93.4° 57.9° - - -
6/20 9:50pm 287 6 G 10 67° 77% - - 59° 93.4° 57.9° - - -
6/20 9:40pm 284 7 G 12 67° 76% - - 59° 93.4° 57.9° - - -
6/20 9:30pm 279 9 G 14 68° 74% - - 59° 93.4° 57.9° - - -
6/20 9:20pm 276 10 G 15 69° 71% - - 59° 93.4° 57.9° - - -
6/20 9:10pm 281 7 G 13 69° 69% - - 59° 93.4° 57.9° - - -
6/20 9:00pm 284 6 G 12 70° 67% - - 59° 93.4° 57.9° - - -
6/20 8:50pm 281 7 G 14 71° 65% - - 58° 93.4° 57.9° - - -
6/20 8:40pm 278 7 G 11 72° 63% - - 58° 93.4° 57.9° - - -
6/20 8:30pm 277 6 G 13 72° 61% - - 58° 93.4° 57.9° - - -
6/20 8:20pm 271 7 G 11 73° 58% - - 58° 93.4° 57.9° - - -
6/20 8:10pm 267 8 G 12 74° 56% - - 58° 93.4° 57.9° - - -
6/20 8:00pm 271 8 G 12 75° 54% - - 58° 93.4° 57.9° - - -
6/20 7:50pm 269 7 G 13 77° 52% - - 58° 93.4° 57.9° - - -
6/20 7:40pm 272 6 G 12 78° 49% - - 57° 93.4° 57.9° - - -
6/20 7:30pm 271 7 G 11 79° 46% - - 57° 93.4° 57.9° - - -
6/20 7:20pm 269 7 G 11 81° 43% - - 56° 93.4° 57.9° - - -
6/20 7:10pm 258 6 G 11 83° 39% - - 56° 93.4° 57.9° - - -
6/20 7:00pm 259 5 G 9 84° 37% - - 55° 93.4° 57.9° - - -
6/20 6:50pm 259 5 G 11 85° 35% - - 55° 93.4° 57.9° - - -
6/20 6:40pm 254 6 G 11 86° 34% - - 54° 93.4° 57.9° - - -
6/20 6:30pm 251 6 G 11 86° 34% - - 55° 93.4° 57.9° - - -
6/20 6:20pm 252 6 G 10 87° 33% - - 54° 93.4° 57.9° - - -
6/20 6:10pm 247 6 G 11 87° 33% - - 54° 93.4° 57.9° - - -
6/20 6:00pm 241 9 G 12 87° 32% - - 54° 93.4° 57.9° - - -